createdAt,value
2023-01-28T00:00:57.147Z,3.20
2023-01-28T00:03:25.541Z,3.80
2023-01-28T00:05:54.377Z,5.60
2023-01-28T00:08:22.135Z,3.20
2023-01-28T00:10:49.943Z,5.20
2023-01-28T00:13:17.710Z,2.20
2023-01-28T00:15:45.915Z,2.60
2023-01-28T00:18:14.156Z,3.40
2023-01-28T00:20:41.832Z,1.00
2023-01-28T00:23:09.543Z,4.40
2023-01-28T00:25:37.364Z,3.00
2023-01-28T00:28:05.419Z,2.60
2023-01-28T00:30:33.181Z,4.00
2023-01-28T00:33:00.955Z,3.60
2023-01-28T00:35:30.364Z,0.40
2023-01-28T00:37:58.056Z,3.00
2023-01-28T00:40:27.578Z,4.00
2023-01-28T00:42:55.294Z,6.00
2023-01-28T00:45:22.993Z,3.60
2023-01-28T00:47:50.668Z,3.80
2023-01-28T00:50:18.342Z,3.00
2023-01-28T00:52:46.663Z,5.60
2023-01-28T00:55:14.587Z,4.00
2023-01-28T00:57:42.562Z,3.00
2023-01-28T01:00:10.228Z,1.40
2023-01-28T01:02:40.903Z,4.20
2023-01-28T01:05:09.734Z,0.60
2023-01-28T01:07:42.908Z,3.60
2023-01-28T01:10:10.535Z,3.20
2023-01-28T01:12:38.204Z,6.20
2023-01-28T01:15:09.227Z,3.40
2023-01-28T01:17:38.676Z,1.40
2023-01-28T01:20:06.499Z,4.00
2023-01-28T01:22:34.193Z,6.00
2023-01-28T01:25:01.852Z,6.00
2023-01-28T01:27:29.479Z,2.60
2023-01-28T01:29:57.694Z,1.00
2023-01-28T01:32:25.359Z,4.40
2023-01-28T01:34:53.061Z,5.20
2023-01-28T01:37:20.759Z,1.80
2023-01-28T01:39:49.159Z,0.60
2023-01-28T01:42:17.210Z,3.00
2023-01-28T01:44:45.425Z,0.80
2023-01-28T01:47:13.029Z,3.80
2023-01-28T01:49:40.726Z,3.00
2023-01-28T01:52:08.421Z,0.20
2023-01-28T01:54:36.470Z,3.80
2023-01-28T01:57:04.079Z,2.60
2023-01-28T01:59:31.753Z,3.20
2023-01-28T02:01:59.416Z,0.00
2023-01-28T02:04:27.097Z,3.00
2023-01-28T02:06:57.159Z,3.00
2023-01-28T02:09:24.762Z,1.40
2023-01-28T02:11:52.383Z,4.00
2023-01-28T02:14:30.517Z,4.40
2023-01-28T02:16:59.204Z,7.00
2023-01-28T02:19:26.853Z,3.00
2023-01-28T02:21:54.537Z,4.40
2023-01-28T02:24:22.209Z,0.00
2023-01-28T02:26:49.926Z,2.60
2023-01-28T02:29:17.876Z,3.00
2023-01-28T02:31:45.622Z,3.00
2023-01-28T02:34:13.340Z,1.00
2023-01-28T02:36:40.949Z,1.00
2023-01-28T02:39:08.578Z,4.00
2023-01-28T02:41:36.592Z,3.80
2023-01-28T02:44:04.363Z,1.40
2023-01-28T02:46:49.270Z,1.00
2023-01-28T02:49:16.901Z,3.20
2023-01-28T02:51:44.897Z,4.00
2023-01-28T02:54:11.537Z,3.00
2023-01-28T02:56:39.159Z,1.40
2023-01-28T02:59:26.760Z,3.00
2023-01-28T03:01:58.806Z,3.40
2023-01-28T03:04:26.420Z,1.00
2023-01-28T03:06:54.479Z,4.00
2023-01-28T03:09:27.007Z,3.40
2023-01-28T03:12:12.746Z,1.00
2023-01-28T03:14:57.597Z,3.00
2023-01-28T03:17:42.624Z,3.00
2023-01-28T03:20:27.543Z,3.20
2023-01-28T03:23:12.893Z,3.20
2023-01-28T03:25:57.836Z,1.00
2023-01-28T03:28:42.992Z,4.00
2023-01-28T03:31:28.052Z,0.00
2023-01-28T03:34:13.322Z,3.00
2023-01-28T03:36:50.732Z,2.60
2023-01-28T03:39:18.392Z,3.60
2023-01-28T03:41:45.991Z,3.00
2023-01-28T03:44:31.586Z,3.00
2023-01-28T03:46:59.354Z,1.80
2023-01-28T03:49:27.393Z,2.60
2023-01-28T03:51:55.031Z,3.80
2023-01-28T03:54:22.650Z,4.40
2023-01-28T03:56:50.585Z,3.00
2023-01-28T03:59:18.479Z,3.60
2023-01-28T04:01:46.128Z,3.60
2023-01-28T04:04:23.124Z,1.40
2023-01-28T04:06:50.737Z,3.00
2023-01-28T04:09:18.358Z,1.00
2023-01-28T04:11:46.455Z,1.40
2023-01-28T04:14:14.565Z,5.20
2023-01-28T04:16:42.181Z,3.20
2023-01-28T04:19:10.131Z,0.80
2023-01-28T04:21:37.769Z,4.40
2023-01-28T04:24:05.436Z,0.40
2023-01-28T04:26:33.097Z,3.00
2023-01-28T04:29:00.728Z,1.00
2023-01-28T04:31:28.734Z,7.40
2023-01-28T04:33:57.926Z,3.00
2023-01-28T04:36:25.522Z,4.00
2023-01-28T04:38:53.107Z,6.80
2023-01-28T04:41:20.796Z,3.60
2023-01-28T04:43:49.848Z,4.40
2023-01-28T04:46:17.685Z,5.20
2023-01-28T04:48:45.476Z,6.00
2023-01-28T04:51:13.111Z,6.60
2023-01-28T04:53:40.743Z,4.80
2023-01-28T04:56:09.092Z,4.40
2023-01-28T04:58:36.677Z,3.40
2023-01-28T05:01:04.300Z,3.40
2023-01-28T05:03:31.977Z,3.00
2023-01-28T05:05:59.711Z,5.80
2023-01-28T05:08:27.707Z,5.20
2023-01-28T05:10:55.534Z,6.80
2023-01-28T05:13:23.163Z,6.00
2023-01-28T05:15:50.752Z,3.00
2023-01-28T05:18:18.765Z,4.20
2023-01-28T05:20:46.750Z,3.00
2023-01-28T05:23:14.572Z,6.00
2023-01-28T05:25:42.233Z,6.00
2023-01-28T05:28:09.832Z,6.80
2023-01-28T05:30:37.438Z,6.60
2023-01-28T05:33:05.422Z,5.20
2023-01-28T05:35:33.215Z,4.00
2023-01-28T05:38:00.848Z,1.40
2023-01-28T05:40:28.927Z,4.80
2023-01-28T05:42:56.520Z,2.20
2023-01-28T05:45:24.629Z,2.60
2023-01-28T05:47:52.305Z,3.80
2023-01-28T05:50:19.907Z,7.00
2023-01-28T05:52:47.541Z,2.20
2023-01-28T05:55:15.211Z,4.00
2023-01-28T05:57:44.959Z,2.20
2023-01-28T06:00:13.373Z,4.80
2023-01-28T06:02:41.523Z,5.80
2023-01-28T06:05:09.181Z,5.80
2023-01-28T06:07:36.815Z,3.00
2023-01-28T06:10:04.842Z,7.40
2023-01-28T06:12:32.472Z,7.20
2023-01-28T06:15:00.103Z,1.00
2023-01-28T06:17:27.776Z,6.60
2023-01-28T06:19:55.358Z,3.60
2023-01-28T06:22:23.349Z,3.80
2023-01-28T06:24:50.984Z,3.00
2023-01-28T06:27:18.571Z,6.00
2023-01-28T06:29:46.173Z,3.60
2023-01-28T06:32:13.908Z,1.80
2023-01-28T06:34:42.514Z,2.00
2023-01-28T06:37:10.110Z,1.80
2023-01-28T06:39:37.756Z,1.40
2023-01-28T06:42:05.407Z,3.00
2023-01-28T06:44:33.032Z,1.00
2023-01-28T06:47:01.499Z,4.00
2023-01-28T06:49:29.266Z,2.60
2023-01-28T06:51:56.920Z,4.00
2023-01-28T06:54:24.591Z,3.80
2023-01-28T06:56:52.216Z,3.00
2023-01-28T06:59:20.168Z,6.00
2023-01-28T07:01:47.884Z,3.20
2023-01-28T07:04:15.535Z,3.80
2023-01-28T07:06:43.266Z,3.80
2023-01-28T07:09:11.730Z,5.20
2023-01-28T07:11:39.747Z,6.00
2023-01-28T07:14:07.661Z,4.20
2023-01-28T07:16:35.366Z,1.40
2023-01-28T07:19:03.014Z,3.60
2023-01-28T07:21:30.599Z,4.80
2023-01-28T07:23:58.645Z,6.40
2023-01-28T07:26:26.794Z,6.20
2023-01-28T07:28:54.375Z,3.40
2023-01-28T07:31:22.586Z,6.80
2023-01-28T07:33:50.260Z,6.00
2023-01-28T07:36:18.269Z,4.80
2023-01-28T07:38:45.981Z,6.00
2023-01-28T07:41:13.631Z,5.60
2023-01-28T07:43:41.247Z,2.60
2023-01-28T07:46:08.926Z,3.80
2023-01-28T07:48:37.427Z,4.00
2023-01-28T07:51:05.305Z,6.60
2023-01-28T07:53:33.035Z,1.00
2023-01-28T07:56:00.924Z,3.80
2023-01-28T07:58:28.579Z,6.00
2023-01-28T08:00:56.623Z,4.00
2023-01-28T08:03:24.499Z,5.20
2023-01-28T08:05:52.204Z,0.80
2023-01-28T08:08:19.984Z,6.60
2023-01-28T08:10:47.632Z,1.00
2023-01-28T08:13:15.647Z,5.60
2023-01-28T08:15:43.372Z,4.00
2023-01-28T08:18:13.144Z,3.40
2023-01-28T08:20:41.103Z,3.20
2023-01-28T08:23:08.781Z,1.00
2023-01-28T08:25:36.862Z,3.00
2023-01-28T08:28:04.679Z,4.00
2023-01-28T08:30:32.541Z,5.00
2023-01-28T08:33:00.283Z,5.40
2023-01-28T08:35:28.523Z,9.20
2023-01-28T08:37:56.732Z,1.00
2023-01-28T08:40:24.639Z,5.80
2023-01-28T08:42:52.585Z,5.80
2023-01-28T08:45:20.368Z,4.40
2023-01-28T08:47:48.161Z,6.20
2023-01-28T08:50:16.234Z,3.00
2023-01-28T08:52:44.821Z,4.20
2023-01-28T08:55:12.677Z,4.00
2023-01-28T08:57:40.700Z,3.40
2023-01-28T09:00:08.589Z,4.40
2023-01-28T09:02:36.576Z,1.40
2023-01-28T09:05:04.753Z,3.00
2023-01-28T09:07:32.599Z,3.80
2023-01-28T09:10:00.409Z,3.20
2023-01-28T09:12:28.140Z,4.00
2023-01-28T09:14:55.900Z,6.00
2023-01-28T09:17:23.826Z,4.00
2023-01-28T09:19:52.257Z,3.00
2023-01-28T09:22:20.080Z,3.40
2023-01-28T09:24:47.917Z,3.40
2023-01-28T09:27:16.068Z,3.80
2023-01-28T09:29:44.395Z,5.60
2023-01-28T09:32:12.140Z,4.00
2023-01-28T09:34:40.148Z,5.60
2023-01-28T09:37:07.992Z,3.60
2023-01-28T09:39:35.853Z,4.80
2023-01-28T09:42:05.798Z,5.60
2023-01-28T09:44:33.649Z,5.20
2023-01-28T09:47:01.905Z,4.00
2023-01-28T09:49:29.896Z,3.20
2023-01-28T09:51:58.089Z,3.60
2023-01-28T09:54:26.012Z,4.80
2023-01-28T09:56:53.850Z,4.00
2023-01-28T09:59:21.672Z,3.20
2023-01-28T10:01:49.757Z,1.40
2023-01-28T10:04:17.907Z,3.40
2023-01-28T10:06:45.958Z,4.00
2023-01-28T10:09:13.840Z,4.80
2023-01-28T10:11:41.633Z,4.00
2023-01-28T10:14:09.505Z,0.80
2023-01-28T10:16:37.743Z,4.40
2023-01-28T10:19:05.678Z,1.80
2023-01-28T10:21:33.670Z,3.80
2023-01-28T10:24:01.668Z,4.00
2023-01-28T10:26:29.997Z,2.60
2023-01-28T10:28:58.692Z,6.00
2023-01-28T10:31:26.665Z,5.60
2023-01-28T10:33:54.543Z,3.20
2023-01-28T10:36:22.583Z,3.00
2023-01-28T10:38:50.495Z,3.00
2023-01-28T10:41:18.703Z,6.00
2023-01-28T10:43:46.949Z,3.80
2023-01-28T10:46:14.965Z,5.20
2023-01-28T10:48:43.221Z,8.60
2023-01-28T10:51:11.334Z,0.80
2023-01-28T10:53:39.723Z,6.20
2023-01-28T10:56:08.123Z,5.20
2023-01-28T10:58:36.061Z,1.80
2023-01-28T11:01:03.919Z,4.20
2023-01-28T11:03:32.333Z,4.40
2023-01-28T11:06:01.015Z,4.00
2023-01-28T11:08:29.199Z,4.80
2023-01-28T11:11:01.206Z,5.80
2023-01-28T11:13:29.121Z,3.00
2023-01-28T11:15:56.993Z,3.60
2023-01-28T11:18:25.765Z,4.40
2023-01-28T11:20:53.948Z,6.00
2023-01-28T11:23:21.799Z,3.00
2023-01-28T11:25:50.006Z,3.00
2023-01-28T11:28:17.815Z,3.00
2023-01-28T11:30:46.048Z,4.00
2023-01-28T11:33:15.386Z,3.80
2023-01-28T11:35:43.241Z,1.80
2023-01-28T11:38:11.009Z,4.00
2023-01-28T11:40:39.001Z,3.60
2023-01-28T11:43:07.164Z,3.00
2023-01-28T11:45:35.251Z,3.00
2023-01-28T11:48:03.281Z,3.60
2023-01-28T11:50:31.133Z,5.60
2023-01-28T11:53:07.670Z,5.20
2023-01-28T11:55:36.671Z,3.00
2023-01-28T11:58:04.780Z,1.40
2023-01-28T12:00:33.050Z,2.80
2023-01-28T12:03:01.192Z,3.20
2023-01-28T12:05:29.020Z,3.40
2023-01-28T12:07:57.507Z,3.00
2023-01-28T12:10:25.600Z,1.80
2023-01-28T12:12:53.370Z,1.00
2023-01-28T12:15:21.878Z,5.60
2023-01-28T12:17:49.762Z,4.80
2023-01-28T12:20:18.384Z,6.00
2023-01-28T12:22:46.478Z,3.20
2023-01-28T12:25:14.564Z,3.20
2023-01-28T12:27:42.658Z,3.80
2023-01-28T12:30:10.575Z,1.00
2023-01-28T12:32:40.332Z,4.00
2023-01-28T12:35:08.441Z,4.80
2023-01-28T12:37:36.734Z,9.20
2023-01-28T12:40:04.813Z,2.60
2023-01-28T12:42:32.632Z,6.40
2023-01-28T12:45:00.834Z,5.80
2023-01-28T12:47:28.820Z,4.80
2023-01-28T12:49:57.450Z,6.20
2023-01-28T12:52:25.413Z,7.20
2023-01-28T12:54:53.561Z,3.00
2023-01-28T12:57:22.353Z,8.60
2023-01-28T12:59:50.666Z,10.40
2023-01-28T13:02:19.038Z,9.20
2023-01-28T13:04:46.989Z,13.20
2023-01-28T13:07:15.023Z,5.20
2023-01-28T13:09:44.121Z,5.60
2023-01-28T13:12:13.778Z,7.00
2023-01-28T13:14:41.779Z,4.40
2023-01-28T13:17:09.905Z,7.80
2023-01-28T13:19:38.029Z,9.80
2023-01-28T13:22:06.305Z,6.00
2023-01-28T13:24:34.458Z,4.80
2023-01-28T13:27:02.388Z,7.00
2023-01-28T13:29:30.701Z,4.40
2023-01-28T13:31:58.698Z,5.60
2023-01-28T13:34:26.737Z,7.00
2023-01-28T13:36:54.727Z,3.20
2023-01-28T13:39:22.623Z,7.00
2023-01-28T13:41:50.974Z,7.00
2023-01-28T13:44:18.909Z,8.20
2023-01-28T13:46:47.817Z,4.40
2023-01-28T13:49:15.706Z,4.40
2023-01-28T13:51:43.570Z,3.00
2023-01-28T13:54:11.615Z,3.60
2023-01-28T13:56:39.479Z,8.20
2023-01-28T13:59:07.801Z,6.40
2023-01-28T14:01:35.941Z,4.00
2023-01-28T14:04:04.234Z,6.00
2023-01-28T14:06:32.109Z,6.00
2023-01-28T14:09:00.186Z,1.00
2023-01-28T14:11:28.024Z,7.00
2023-01-28T14:13:55.964Z,9.00
2023-01-28T14:16:23.966Z,5.20
2023-01-28T14:18:52.021Z,0.40
2023-01-28T14:21:19.895Z,6.00
2023-01-28T14:23:49.310Z,7.00
2023-01-28T14:26:18.125Z,6.00
2023-01-28T14:28:46.079Z,8.20
2023-01-28T14:31:14.257Z,7.80
2023-01-28T14:33:42.237Z,7.00
2023-01-28T14:36:10.567Z,9.60
2023-01-28T14:38:38.523Z,7.00
2023-01-28T14:41:06.333Z,4.80
2023-01-28T14:43:34.232Z,11.20
2023-01-28T14:46:04.030Z,6.80
2023-01-28T14:48:35.326Z,6.00
2023-01-28T14:51:03.371Z,7.00
2023-01-28T14:53:31.275Z,7.00
2023-01-28T14:55:59.282Z,3.80
2023-01-28T14:58:27.347Z,10.40
2023-01-28T15:00:55.424Z,7.00
2023-01-28T15:03:25.123Z,7.80
2023-01-28T15:05:53.820Z,6.00
2023-01-28T15:08:21.837Z,8.00
2023-01-28T15:10:50.280Z,7.50
2023-01-28T15:13:18.929Z,7.00
2023-01-28T15:15:46.799Z,4.00
2023-01-28T15:18:14.630Z,12.00
2023-01-28T15:20:42.702Z,6.40
2023-01-28T15:23:10.447Z,9.20
2023-01-28T15:25:38.814Z,6.80
2023-01-28T15:28:06.875Z,6.40
2023-01-28T15:30:34.887Z,3.00
2023-01-28T15:33:03.179Z,5.60
2023-01-28T15:35:31.177Z,7.40
2023-01-28T15:37:59.847Z,4.00
2023-01-28T15:40:27.940Z,6.00
2023-01-28T15:42:56.024Z,4.80
2023-01-28T15:45:23.968Z,6.40
2023-01-28T15:47:51.929Z,3.80
2023-01-28T15:50:20.301Z,4.60
2023-01-28T15:52:48.151Z,18.20
2023-01-28T15:55:18.276Z,13.00
2023-01-28T15:57:47.412Z,7.00
2023-01-28T16:00:15.322Z,7.40
2023-01-28T16:02:43.829Z,9.20
2023-01-28T16:05:12.834Z,7.80
2023-01-28T16:07:40.819Z,9.00
2023-01-28T16:10:08.700Z,7.80
2023-01-28T16:12:36.717Z,5.00
2023-01-28T16:15:07.673Z,7.80
2023-01-28T16:17:35.508Z,12.20
2023-01-28T16:20:03.423Z,4.40
2023-01-28T16:22:31.276Z,9.00
2023-01-28T16:24:59.224Z,9.60
2023-01-28T16:27:28.062Z,8.80
2023-01-28T16:29:56.002Z,6.00
2023-01-28T16:32:23.865Z,8.60
2023-01-28T16:34:51.962Z,11.60
2023-01-28T16:37:20.514Z,13.00
2023-01-28T16:39:48.632Z,7.80
2023-01-28T16:42:16.632Z,14.60
2023-01-28T16:44:44.644Z,12.80
2023-01-28T16:47:12.492Z,7.00
2023-01-28T16:49:40.617Z,5.60
2023-01-28T16:52:09.308Z,6.40
2023-01-28T16:54:37.150Z,6.00
2023-01-28T16:57:05.182Z,10.80
2023-01-28T16:59:33.444Z,9.60
2023-01-28T17:02:01.283Z,5.80
2023-01-28T17:04:29.977Z,12.00
2023-01-28T17:06:57.985Z,12.60
2023-01-28T17:09:25.993Z,10.20
2023-01-28T17:11:54.261Z,6.00
2023-01-28T17:14:22.197Z,8.20
2023-01-28T17:16:50.966Z,10.00
2023-01-28T17:19:18.948Z,8.80
2023-01-28T17:21:46.801Z,0.00
2023-01-28T17:24:14.686Z,10.00
2023-01-28T17:26:42.590Z,9.80
2023-01-28T17:29:11.153Z,12.00
2023-01-28T17:31:39.181Z,7.00
2023-01-28T17:34:08.649Z,12.00
2023-01-28T17:36:36.665Z,8.20
2023-01-28T17:39:04.758Z,10.40
2023-01-28T17:41:35.335Z,10.40
2023-01-28T17:44:04.734Z,9.20
2023-01-28T17:46:32.635Z,6.00
2023-01-28T17:49:00.644Z,8.40
2023-01-28T17:51:28.516Z,7.20
2023-01-28T17:53:57.416Z,8.20
2023-01-28T17:56:26.096Z,9.40
2023-01-28T17:58:53.925Z,8.80
2023-01-28T18:01:21.978Z,10.00
2023-01-28T18:03:50.731Z,17.60
2023-01-28T18:06:19.264Z,11.00
2023-01-28T18:08:47.071Z,15.40
2023-01-28T18:11:15.129Z,13.00
2023-01-28T18:13:42.933Z,11.60
2023-01-28T18:16:10.801Z,6.80
2023-01-28T18:18:39.646Z,6.40
2023-01-28T18:21:07.419Z,4.40
2023-01-28T18:23:35.227Z,9.80
2023-01-28T18:26:04.647Z,6.80
2023-01-28T18:28:32.514Z,8.20
2023-01-28T18:31:00.950Z,6.00
2023-01-28T18:33:28.914Z,6.40
2023-01-28T18:35:56.811Z,2.60
2023-01-28T18:38:24.762Z,7.40
2023-01-28T18:40:52.725Z,5.20
2023-01-28T18:43:21.290Z,10.80
2023-01-28T18:45:50.797Z,7.80
2023-01-28T18:48:19.170Z,12.20
2023-01-28T18:50:47.181Z,9.40
2023-01-28T18:53:15.092Z,9.80
2023-01-28T18:55:43.115Z,6.80
2023-01-28T18:58:11.065Z,13.40
2023-01-28T19:00:39.205Z,8.20
2023-01-28T19:03:07.209Z,6.40
2023-01-28T19:05:35.174Z,6.80
2023-01-28T19:08:04.068Z,4.40
2023-01-28T19:10:32.432Z,9.20
2023-01-28T19:13:00.393Z,0.40
2023-01-28T19:15:28.369Z,7.40
2023-01-28T19:17:56.274Z,9.80
2023-01-28T19:20:24.908Z,3.00
2023-01-28T19:22:53.015Z,12.20
2023-01-28T19:25:21.053Z,9.40
2023-01-28T19:27:48.860Z,12.40
2023-01-28T19:30:17.038Z,6.20
2023-01-28T19:32:46.788Z,7.80
2023-01-28T19:35:15.102Z,12.20
2023-01-28T19:37:43.173Z,10.60
2023-01-28T19:40:11.312Z,7.40
2023-01-28T19:42:39.386Z,6.20
2023-01-28T19:45:08.795Z,9.60
2023-01-28T19:47:36.916Z,7.00
2023-01-28T19:50:04.822Z,5.60
2023-01-28T19:52:32.743Z,12.00
2023-01-28T19:55:00.864Z,9.00
2023-01-28T19:57:29.789Z,9.40
2023-01-28T19:59:57.904Z,4.40
2023-01-28T20:02:25.917Z,1.60
2023-01-28T20:05:00.649Z,9.20
2023-01-28T20:07:29.254Z,8.20
2023-01-28T20:09:57.636Z,11.80
2023-01-28T20:12:25.531Z,12.60
2023-01-28T20:14:53.987Z,12.60
2023-01-28T20:17:22.070Z,14.00
2023-01-28T20:19:50.690Z,13.20
2023-01-28T20:22:19.015Z,8.40
2023-01-28T20:24:46.942Z,6.60
2023-01-28T20:27:14.756Z,12.40
2023-01-28T20:29:42.831Z,5.60
2023-01-28T20:32:18.270Z,14.40
2023-01-28T20:34:47.642Z,12.40
2023-01-28T20:37:15.538Z,11.00
2023-01-28T20:39:43.978Z,9.20
2023-01-28T20:42:13.810Z,9.40
2023-01-28T20:44:41.860Z,8.60
2023-01-28T20:47:10.274Z,6.20
2023-01-28T20:49:38.409Z,10.00
2023-01-28T20:52:06.283Z,8.60
2023-01-28T20:54:34.443Z,9.60
2023-01-28T20:57:02.863Z,5.20
2023-01-28T20:59:33.170Z,3.40
2023-01-28T21:02:01.683Z,14.20
2023-01-28T21:04:29.876Z,10.60
2023-01-28T21:06:58.409Z,23.40
2023-01-28T21:09:28.094Z,15.80
2023-01-28T21:11:56.766Z,16.20
2023-01-28T21:14:24.670Z,12.00
2023-01-28T21:16:53.261Z,7.00
2023-01-28T21:19:22.616Z,11.40
2023-01-28T21:21:50.561Z,13.60
2023-01-28T21:24:18.805Z,2.80
2023-01-28T21:26:46.854Z,13.80
2023-01-28T21:29:14.942Z,20.40
2023-01-28T21:31:44.418Z,10.80
2023-01-28T21:34:12.535Z,9.00
2023-01-28T21:36:40.836Z,13.00
2023-01-28T21:39:08.756Z,12.40
2023-01-28T21:41:37.295Z,12.80
2023-01-28T21:44:05.378Z,7.20
2023-01-28T21:46:33.414Z,13.60
2023-01-28T21:49:01.916Z,8.80
2023-01-28T21:51:39.899Z,11.40
2023-01-28T21:54:07.901Z,3.80
2023-01-28T21:56:35.757Z,5.80
2023-01-28T21:59:21.130Z,9.60
2023-01-28T22:01:49.399Z,15.00
2023-01-28T22:04:17.603Z,12.80
2023-01-28T22:06:45.569Z,12.00
2023-01-28T22:09:14.231Z,14.60
2023-01-28T22:11:42.678Z,6.80
2023-01-28T22:14:10.596Z,6.60
2023-01-28T22:16:38.542Z,7.40
2023-01-28T22:19:06.372Z,12.60
2023-01-28T22:21:37.860Z,9.40
2023-01-28T22:24:06.173Z,12.60
2023-01-28T22:26:34.057Z,6.40
2023-01-28T22:29:02.242Z,12.60
2023-01-28T22:31:30.359Z,10.40
2023-01-28T22:33:58.321Z,7.40
2023-01-28T22:36:26.268Z,13.60
2023-01-28T22:38:54.132Z,11.80
2023-01-28T22:41:23.637Z,9.20
2023-01-28T22:43:51.871Z,10.60
2023-01-28T22:46:20.024Z,15.00
2023-01-28T22:48:48.264Z,11.80
2023-01-28T22:51:16.180Z,13.20
2023-01-28T22:53:44.255Z,15.80
2023-01-28T22:56:12.171Z,12.20
2023-01-28T22:58:40.102Z,16.00
2023-01-28T23:01:08.661Z,10.60
2023-01-28T23:03:38.198Z,11.60
2023-01-28T23:06:06.321Z,14.20
2023-01-28T23:08:35.011Z,12.80
2023-01-28T23:11:02.778Z,12.20
2023-01-28T23:13:54.575Z,11.40
2023-01-28T23:16:39.692Z,18.20
2023-01-28T23:19:24.948Z,6.40
2023-01-28T23:22:10.015Z,10.40
2023-01-28T23:24:38.879Z,9.00
2023-01-28T23:27:06.786Z,10.80
2023-01-28T23:29:35.162Z,11.60
2023-01-28T23:32:03.820Z,14.40
2023-01-28T23:34:31.856Z,12.40
2023-01-28T23:37:00.241Z,11.60
2023-01-28T23:39:28.034Z,9.00
2023-01-28T23:41:55.839Z,15.00
2023-01-28T23:44:23.589Z,6.80
2023-01-28T23:46:51.535Z,14.20
2023-01-28T23:49:19.927Z,10.40
2023-01-28T23:51:47.831Z,7.00
2023-01-28T23:54:15.625Z,13.60
2023-01-28T23:56:43.386Z,11.80
2023-01-28T23:59:11.096Z,8.80
